Time;durP1;ratioP1;P1;durP2;ratioP2;P2;SDS_P1;SDS_P2;PMS_P1;PMS_P2;Temp;Humidity;BMP_temperature;BMP_pressure;BME280_temperature;BME280_humidity;BME280_pressure;Samples;Min_cycle;Max_cycle;Signal;HPM_P1;HPM_P2
2022/10/30 00:00:37;;;;;;;15.85;8.70;;;12.90;99.90;;;;;;5006180;28;20519;-81
2022/10/30 00:03:03;;;;;;;10.70;7.97;;;12.80;99.90;;;;;;5006095;28;20041;-81
2022/10/30 00:05:28;;;;;;;15.18;9.55;;;12.90;99.90;;;;;;5007860;28;20052;-80
2022/10/30 00:07:55;;;;;;;12.60;9.52;;;12.90;99.90;;;;;;5007485;28;20053;-80
2022/10/30 00:10:21;;;;;;;11.23;8.13;;;12.80;99.90;;;;;;5015122;28;20220;-82
2022/10/30 00:12:47;;;;;;;12.98;9.05;;;12.80;99.90;;;;;;5006313;28;20523;-81
2022/10/30 00:15:13;;;;;;;13.43;9.18;;;12.80;99.90;;;;;;5005401;28;20093;-81
2022/10/30 00:17:39;;;;;;;20.00;9.43;;;12.80;99.90;;;;;;5006339;28;20068;-81
2022/10/30 00:20:05;;;;;;;13.65;9.25;;;12.80;99.90;;;;;;5005286;28;20038;-79
2022/10/30 00:22:30;;;;;;;24.48;9.57;;;12.80;99.90;;;;;;5004709;28;20057;-80
2022/10/30 00:24:56;;;;;;;18.45;10.10;;;12.80;99.90;;;;;;5003685;28;20172;-78
2022/10/30 00:27:22;;;;;;;14.52;8.98;;;12.80;99.90;;;;;;5005850;28;20176;-81
2022/10/30 00:29:47;;;;;;;17.17;9.38;;;12.80;99.90;;;;;;5005605;28;20042;-80
2022/10/30 00:32:13;;;;;;;12.70;8.90;;;12.80;99.90;;;;;;5004209;28;20046;-79
2022/10/30 00:34:38;;;;;;;11.10;7.72;;;12.80;99.90;;;;;;5004210;28;20041;-80
2022/10/30 00:37:04;;;;;;;14.90;9.75;;;12.90;99.90;;;;;;5005476;28;20042;-80
2022/10/30 00:39:29;;;;;;;14.07;10.13;;;12.80;99.90;;;;;;5004828;28;20046;-78
2022/10/30 00:41:55;;;;;;;18.27;9.02;;;12.90;99.90;;;;;;4987971;28;20155;-81
2022/10/30 00:44:43;;;;;;;11.43;8.13;;;12.90;99.90;;;;;;5005501;28;20061;-81
2022/10/30 00:47:16;;;;;;;14.90;8.10;;;12.90;99.90;;;;;;5004210;28;20720;-80
2022/10/30 00:49:50;;;;;;;16.17;10.55;;;12.80;99.90;;;;;;5004229;28;20050;-78
2022/10/30 00:52:16;;;;;;;17.13;11.00;;;12.90;99.90;;;;;;5004601;28;20511;-79
2022/10/30 00:54:42;;;;;;;20.30;9.77;;;12.90;99.90;;;;;;4987081;28;20045;-79
2022/10/30 00:57:08;;;;;;;15.10;9.02;;;12.90;99.90;;;;;;5005107;28;20065;-81
2022/10/30 00:59:35;;;;;;;16.00;9.48;;;12.90;99.90;;;;;;5020837;28;20140;-81
2022/10/30 01:02:05;;;;;;;13.63;8.68;;;12.90;99.90;;;;;;4990226;28;20108;-79
2022/10/30 01:04:34;;;;;;;15.27;9.25;;;12.90;99.90;;;;;;5013360;28;20042;-80
2022/10/30 01:07:08;;;;;;;11.13;8.73;;;12.80;99.90;;;;;;5006797;28;20058;-79
2022/10/30 01:09:34;;;;;;;15.63;10.52;;;12.90;99.90;;;;;;5023665;28;20045;-80
2022/10/30 01:11:59;;;;;;;13.00;9.73;;;12.90;99.90;;;;;;5024405;28;20041;-77
2022/10/30 01:14:25;;;;;;;18.17;10.07;;;12.90;99.90;;;;;;5024984;28;20041;-80
2022/10/30 01:17:09;;;;;;;17.10;8.70;;;12.90;99.90;;;;;;5006572;28;20068;-80
2022/10/30 01:19:50;;;;;;;33.33;8.70;;;12.90;99.90;;;;;;5000288;28;20041;-81
2022/10/30 01:22:27;;;;;;;13.50;9.23;;;12.90;99.90;;;;;;5025169;28;20041;-76
2022/10/30 01:25:37;;;;;;;15.00;9.25;;;12.90;99.90;;;;;;5003856;28;20072;-80
2022/10/30 01:28:27;;;;;;;17.42;8.85;;;12.80;99.90;;;;;;4985856;28;20053;-80
2022/10/30 01:31:14;;;;;;;15.30;9.77;;;12.90;99.90;;;;;;5003367;28;20049;-80
2022/10/30 01:34:04;;;;;;;14.45;8.80;;;12.90;99.90;;;;;;5003381;28;20052;-81
2022/10/30 01:36:53;;;;;;;14.90;9.18;;;12.80;99.90;;;;;;4990805;28;20057;-79
2022/10/30 01:39:45;;;;;;;13.15;9.82;;;12.90;99.90;;;;;;5024164;28;20033;-80
2022/10/30 01:42:40;;;;;;;14.68;8.93;;;12.90;99.90;;;;;;5005298;28;20053;-79
2022/10/30 01:45:05;;;;;;;18.17;10.13;;;12.90;99.90;;;;;;5010584;28;20046;-80
2022/10/30 01:47:45;;;;;;;12.90;8.88;;;12.90;99.90;;;;;;5010140;28;20049;-79
2022/10/30 01:50:25;;;;;;;10.18;8.52;;;12.90;99.90;;;;;;5012342;28;20484;-78
2022/10/30 01:53:02;;;;;;;13.98;9.93;;;12.90;99.90;;;;;;5010351;28;20092;-79
2022/10/30 01:55:56;;;;;;;19.63;9.65;;;12.90;99.90;;;;;;5027508;28;20041;-79
2022/10/30 01:58:40;;;;;;;19.27;9.80;;;13.00;99.90;;;;;;5010455;28;20041;-79
2022/10/30 02:01:06;;;;;;;21.25;10.95;;;13.00;99.90;;;;;;5027581;28;20052;-79
2022/10/30 02:03:32;;;;;;;19.90;10.65;;;13.00;99.90;;;;;;5010358;28;20041;-77
2022/10/30 02:05:57;;;;;;;15.20;10.93;;;13.00;99.90;;;;;;5028059;28;20042;-80
2022/10/30 02:08:23;;;;;;;15.82;9.75;;;13.00;99.90;;;;;;5027727;28;20048;-79
2022/10/30 02:10:52;;;;;;;16.85;10.45;;;13.00;99.90;;;;;;5009822;28;20041;-76
2022/10/30 02:13:18;;;;;;;18.48;10.70;;;13.00;99.90;;;;;;5010549;28;20037;-80
2022/10/30 02:15:45;;;;;;;17.80;11.88;;;13.00;99.90;;;;;;5009739;28;20127;-80
2022/10/30 02:18:11;;;;;;;25.08;11.55;;;13.10;99.90;;;;;;5009660;28;20136;-81
2022/10/30 02:20:37;;;;;;;19.23;10.73;;;13.00;99.90;;;;;;5027732;28;20136;-78
2022/10/30 02:23:03;;;;;;;15.00;10.23;;;13.00;99.90;;;;;;5009856;28;20052;-80
2022/10/30 02:25:28;;;;;;;17.98;11.55;;;13.00;99.90;;;;;;5018879;28;20065;-80
2022/10/30 02:27:54;;;;;;;19.80;10.73;;;13.10;99.90;;;;;;5008396;28;20507;-79
2022/10/30 02:30:19;;;;;;;20.52;11.32;;;13.00;99.90;;;;;;5010018;28;20136;-78
2022/10/30 02:32:45;;;;;;;18.17;10.45;;;13.10;99.90;;;;;;5027506;28;20048;-80
2022/10/30 02:35:11;;;;;;;13.23;10.43;;;13.10;99.90;;;;;;5027373;28;20510;-80
2022/10/30 02:37:36;;;;;;;17.25;10.63;;;13.10;99.90;;;;;;5027373;28;20172;-80
2022/10/30 02:40:03;;;;;;;18.73;10.98;;;13.10;99.90;;;;;;5026017;28;20179;-80
2022/10/30 02:42:29;;;;;;;28.38;12.27;;;13.10;99.90;;;;;;5009912;28;20049;-80
2022/10/30 02:44:54;;;;;;;17.25;10.77;;;13.10;99.90;;;;;;5008804;28;20049;-79
2022/10/30 02:47:20;;;;;;;15.05;10.70;;;13.10;99.90;;;;;;4993343;28;20297;-80
2022/10/30 02:49:46;;;;;;;15.45;10.90;;;13.10;99.90;;;;;;5027699;28;20076;-80
2022/10/30 02:52:11;;;;;;;14.93;10.35;;;13.10;99.90;;;;;;5008891;28;20131;-77
2022/10/30 02:54:37;;;;;;;16.73;11.23;;;13.10;99.90;;;;;;5008611;28;20049;-79
2022/10/30 02:57:02;;;;;;;17.20;9.07;;;13.10;99.90;;;;;;5026835;28;20120;-80
2022/10/30 02:59:29;;;;;;;16.92;9.98;;;13.10;99.90;;;;;;5027149;28;20047;-79
2022/10/30 03:01:54;;;;;;;16.48;10.95;;;13.00;99.90;;;;;;4992477;28;20055;-80
2022/10/30 03:04:20;;;;;;;19.15;11.93;;;13.10;99.90;;;;;;5026624;28;20513;-80
2022/10/30 03:06:45;;;;;;;12.93;10.70;;;13.00;99.90;;;;;;5026911;28;20062;-78
2022/10/30 03:09:11;;;;;;;23.15;11.98;;;13.00;99.90;;;;;;5008439;28;20085;-79
2022/10/30 03:11:37;;;;;;;12.60;9.90;;;13.00;99.90;;;;;;5026573;28;20128;-80
2022/10/30 03:14:02;;;;;;;20.77;11.10;;;13.00;99.90;;;;;;5008643;28;20541;-80
2022/10/30 03:16:32;;;;;;;22.80;11.57;;;13.00;99.90;;;;;;5026786;28;20030;-79
2022/10/30 03:18:58;;;;;;;11.27;9.32;;;13.00;99.90;;;;;;5026790;28;20399;-76
2022/10/30 03:21:26;;;;;;;15.57;10.40;;;13.00;99.90;;;;;;5026791;28;20048;-79
2022/10/30 03:23:53;;;;;;;18.70;11.85;;;13.00;99.90;;;;;;5007727;28;20144;-80
2022/10/30 03:26:19;;;;;;;33.63;11.32;;;13.00;99.90;;;;;;5012640;28;20042;-79
2022/10/30 03:28:45;;;;;;;22.52;11.75;;;13.00;99.90;;;;;;4976632;28;20502;-80
2022/10/30 03:31:13;;;;;;;17.83;12.07;;;13.00;99.90;;;;;;5008510;28;20064;-80
2022/10/30 03:33:40;;;;;;;17.45;10.80;;;13.00;99.90;;;;;;5008251;28;20046;-80
2022/10/30 03:36:07;;;;;;;21.73;11.93;;;13.00;99.90;;;;;;5026069;28;20038;-78
2022/10/30 03:38:33;;;;;;;15.63;10.43;;;13.00;99.90;;;;;;5025385;28;20148;-80
2022/10/30 03:40:59;;;;;;;15.07;10.00;;;13.00;99.90;;;;;;5025889;28;20072;-80
2022/10/30 03:43:25;;;;;;;16.85;10.85;;;13.00;99.90;;;;;;5025908;28;20041;-79
2022/10/30 03:45:53;;;;;;;17.08;11.73;;;13.00;99.90;;;;;;5008321;28;20051;-77
2022/10/30 03:48:21;;;;;;;15.68;10.27;;;13.00;99.90;;;;;;5026718;28;20091;-80
2022/10/30 03:50:47;;;;;;;20.80;12.57;;;13.00;99.90;;;;;;5008599;28;20049;-80
2022/10/30 03:53:13;;;;;;;17.60;12.80;;;13.00;99.90;;;;;;4991508;28;20045;-76
2022/10/30 03:55:39;;;;;;;22.30;11.40;;;13.00;99.90;;;;;;5025228;28;20041;-79
2022/10/30 03:58:06;;;;;;;16.55;9.88;;;12.90;99.90;;;;;;5008451;28;20087;-78
2022/10/30 04:00:32;;;;;;;22.48;12.50;;;13.00;99.90;;;;;;5008496;28;20080;-80
2022/10/30 04:02:58;;;;;;;21.38;11.45;;;13.00;99.90;;;;;;5007193;28;20068;-80
2022/10/30 04:05:24;;;;;;;14.07;10.77;;;13.00;99.90;;;;;;5007739;28;20427;-80
2022/10/30 04:07:59;;;;;;;16.58;10.95;;;12.90;99.90;;;;;;5007646;28;20087;-82
2022/10/30 04:10:24;;;;;;;15.00;10.52;;;13.00;99.90;;;;;;5024808;28;20045;-82
2022/10/30 04:12:51;;;;;;;20.38;11.52;;;12.90;99.90;;;;;;5025488;28;20506;-80
2022/10/30 04:15:17;;;;;;;32.85;11.95;;;12.90;99.90;;;;;;5026164;28;20045;-82
2022/10/30 04:17:50;;;;;;;16.05;9.57;;;12.90;99.90;;;;;;5025277;28;20042;-83
2022/10/30 04:20:17;;;;;;;17.65;9.70;;;12.90;99.90;;;;;;5008348;28;20045;-82
2022/10/30 04:22:43;;;;;;;21.27;10.32;;;12.90;99.90;;;;;;5007922;28;20045;-82
2022/10/30 04:25:09;;;;;;;16.20;10.07;;;12.90;99.90;;;;;;5019242;28;20038;-79
2022/10/30 04:27:42;;;;;;;18.67;11.27;;;12.90;99.90;;;;;;5005992;28;20140;-83
2022/10/30 04:30:09;;;;;;;15.60;9.82;;;12.80;99.90;;;;;;4994176;28;20049;-80
2022/10/30 04:32:35;;;;;;;15.52;11.52;;;12.80;99.90;;;;;;5025624;28;20429;-79
2022/10/30 04:35:02;;;;;;;19.15;10.60;;;12.80;99.90;;;;;;5007304;28;20049;-82
2022/10/30 04:37:28;;;;;;;18.08;11.18;;;12.70;99.90;;;;;;5007743;28;20459;-82
2022/10/30 04:39:53;;;;;;;16.98;10.13;;;12.70;99.90;;;;;;4990651;28;20045;-81
2022/10/30 04:42:19;;;;;;;16.25;10.48;;;12.70;99.90;;;;;;5008271;28;20045;-82
2022/10/30 04:44:45;;;;;;;15.43;10.20;;;12.70;99.90;;;;;;5008091;28;20389;-82
2022/10/30 04:47:10;;;;;;;18.40;11.77;;;12.70;99.90;;;;;;5025437;28;20045;-82
2022/10/30 04:49:36;;;;;;;14.40;8.88;;;12.70;99.90;;;;;;5025390;28;20124;-83
2022/10/30 04:52:01;;;;;;;12.70;9.90;;;12.60;99.90;;;;;;5007135;28;20045;-82
2022/10/30 04:54:27;;;;;;;11.18;8.85;;;12.70;99.90;;;;;;5024035;28;20041;-80
2022/10/30 04:56:53;;;;;;;16.92;12.43;;;12.60;99.90;;;;;;5007411;28;20045;-83
2022/10/30 04:59:19;;;;;;;21.75;11.95;;;12.60;99.90;;;;;;5025533;28;20048;-83
2022/10/30 05:01:44;;;;;;;23.45;9.98;;;12.60;99.90;;;;;;5007849;28;20042;-83
2022/10/30 05:04:10;;;;;;;15.30;10.77;;;12.60;99.90;;;;;;5007063;28;20057;-82
2022/10/30 05:06:35;;;;;;;16.65;10.88;;;12.60;99.90;;;;;;5024635;28;20427;-82
2022/10/30 05:09:01;;;;;;;16.33;10.32;;;12.60;99.90;;;;;;5006087;28;20057;-81
2022/10/30 05:11:26;;;;;;;22.02;11.73;;;12.60;99.90;;;;;;5025439;28;20472;-82
2022/10/30 05:13:52;;;;;;;12.25;8.93;;;12.60;99.90;;;;;;5024564;28;20045;-83
2022/10/30 05:16:18;;;;;;;21.77;9.27;;;12.60;99.90;;;;;;5028803;28;20041;-82
2022/10/30 05:18:44;;;;;;;15.45;8.70;;;12.60;99.90;;;;;;5012267;28;20080;-83
2022/10/30 05:21:10;;;;;;;17.05;9.75;;;12.50;99.90;;;;;;5028488;28;20524;-82
2022/10/30 05:23:35;;;;;;;15.32;10.10;;;12.50;99.90;;;;;;5027825;28;20150;-81
2022/10/30 05:26:01;;;;;;;20.60;10.13;;;12.50;99.90;;;;;;5008641;28;20084;-82
2022/10/30 05:28:27;;;;;;;15.27;10.40;;;12.50;99.90;;;;;;5010791;28;20125;-82
2022/10/30 05:30:53;;;;;;;13.02;10.18;;;12.50;99.90;;;;;;4994553;28;20460;-82
2022/10/30 05:33:19;;;;;;;17.92;10.73;;;12.50;99.90;;;;;;5029144;28;20124;-81
2022/10/30 05:35:45;;;;;;;25.13;11.68;;;12.50;99.90;;;;;;4994631;28;20557;-83
2022/10/30 05:38:11;;;;;;;14.93;10.95;;;12.50;99.90;;;;;;5026925;28;20443;-83
2022/10/30 05:40:36;;;;;;;15.73;9.98;;;12.50;99.90;;;;;;5028795;28;20041;-80
2022/10/30 05:43:03;;;;;;;18.58;11.50;;;12.50;99.90;;;;;;5028555;28;20099;-82
2022/10/30 05:45:28;;;;;;;16.25;11.38;;;12.50;99.90;;;;;;5028238;28;20132;-82
2022/10/30 05:47:58;;;;;;;16.55;9.82;;;12.50;99.90;;;;;;5010706;28;20137;-81
2022/10/30 05:50:25;;;;;;;17.67;10.02;;;12.40;99.90;;;;;;5028040;28;20091;-82
2022/10/30 05:52:55;;;;;;;14.80;10.43;;;12.40;99.90;;;;;;5028295;28;20080;-79
2022/10/30 05:55:21;;;;;;;18.38;9.90;;;12.40;99.90;;;;;;5027752;28;20416;-81
2022/10/30 05:57:46;;;;;;;18.33;9.60;;;12.40;99.90;;;;;;5028754;28;20037;-82
2022/10/30 06:00:13;;;;;;;15.40;10.27;;;12.30;99.90;;;;;;5028188;28;20109;-82
2022/10/30 06:02:38;;;;;;;13.15;10.20;;;12.30;99.90;;;;;;5028225;28;20033;-80
2022/10/30 06:05:04;;;;;;;11.88;9.07;;;12.30;99.90;;;;;;5027832;28;20413;-83
2022/10/30 06:07:30;;;;;;;20.05;10.35;;;12.30;99.90;;;;;;5010275;28;20056;-83
2022/10/30 06:09:55;;;;;;;14.77;10.18;;;12.20;99.90;;;;;;5027033;28;20400;-81
2022/10/30 06:12:21;;;;;;;28.48;9.68;;;12.20;99.90;;;;;;5028664;28;20067;-82
2022/10/30 06:14:46;;;;;;;15.77;8.90;;;12.20;99.90;;;;;;5010540;28;20089;-82
2022/10/30 06:17:12;;;;;;;12.50;8.75;;;12.10;99.90;;;;;;5027668;28;20041;-81
2022/10/30 06:19:38;;;;;;;20.02;10.35;;;12.10;99.90;;;;;;5028211;28;20102;-82
2022/10/30 06:22:03;;;;;;;23.10;11.13;;;12.10;99.90;;;;;;5027878;28;20734;-82
2022/10/30 06:24:29;;;;;;;15.98;10.95;;;12.10;99.90;;;;;;5026635;28;20042;-79
2022/10/30 06:26:54;;;;;;;12.27;8.75;;;12.10;99.90;;;;;;5027063;28;20033;-82
2022/10/30 06:29:20;;;;;;;14.57;10.02;;;12.10;99.90;;;;;;5009610;28;20048;-79
2022/10/30 06:31:45;;;;;;;14.10;10.48;;;12.10;99.90;;;;;;5028246;28;20443;-80
2022/10/30 06:34:11;;;;;;;14.57;9.60;;;12.10;99.90;;;;;;5026959;28;20037;-82
2022/10/30 06:36:36;;;;;;;15.10;9.38;;;12.10;99.90;;;;;;5009713;28;20050;-82
2022/10/30 06:39:02;;;;;;;12.18;9.52;;;12.00;99.90;;;;;;5025701;28;20041;-81
2022/10/30 06:41:27;;;;;;;15.50;9.13;;;12.00;99.90;;;;;;5027736;28;20496;-82
2022/10/30 06:43:53;;;;;;;22.77;11.00;;;12.00;99.90;;;;;;5026911;28;20119;-82
2022/10/30 06:46:19;;;;;;;16.42;10.35;;;12.00;99.90;;;;;;5027630;28;20047;-81
2022/10/30 06:48:44;;;;;;;14.27;11.07;;;12.00;99.90;;;;;;5027083;28;20041;-81
2022/10/30 06:51:13;;;;;;;21.52;11.85;;;12.00;99.90;;;;;;5026519;28;20107;-82
2022/10/30 06:53:38;;;;;;;13.05;8.98;;;12.00;99.90;;;;;;5026084;28;20045;-82
2022/10/30 06:56:04;;;;;;;18.10;10.15;;;12.00;99.90;;;;;;5026985;28;20128;-82
2022/10/30 06:58:29;;;;;;;10.60;9.45;;;12.00;99.90;;;;;;5027157;28;20034;-81
2022/10/30 07:00:58;;;;;;;14.13;10.05;;;12.00;99.90;;;;;;4992525;28;20064;-82
2022/10/30 07:03:26;;;;;;;17.40;10.27;;;12.00;99.90;;;;;;4995631;28;20034;-83
2022/10/30 07:05:52;;;;;;;16.20;10.70;;;12.00;99.90;;;;;;4992398;28;20091;-81
2022/10/30 07:08:17;;;;;;;15.35;11.40;;;12.00;99.90;;;;;;5025980;28;20049;-83
2022/10/30 07:10:43;;;;;;;19.88;10.57;;;12.00;99.90;;;;;;4991381;28;20066;-82
2022/10/30 07:13:09;;;;;;;15.30;10.95;;;12.00;99.90;;;;;;5008364;28;20061;-82
2022/10/30 07:15:34;;;;;;;23.02;11.02;;;12.00;99.90;;;;;;5006577;28;20045;-80
2022/10/30 07:18:02;;;;;;;15.95;12.68;;;12.00;99.90;;;;;;5012245;28;20532;-81
2022/10/30 07:20:29;;;;;;;17.60;11.77;;;12.00;99.90;;;;;;4988139;28;20034;-82
2022/10/30 07:22:55;;;;;;;14.32;12.20;;;12.00;99.90;;;;;;4975081;28;20378;-81
2022/10/30 07:25:21;;;;;;;16.67;11.10;;;12.00;99.90;;;;;;5006997;28;20053;-80
2022/10/30 07:27:48;;;;;;;21.80;10.10;;;12.00;99.90;;;;;;5024639;28;20415;-81
2022/10/30 07:30:16;;;;;;;17.65;10.75;;;12.00;99.90;;;;;;5006130;28;20049;-82
2022/10/30 07:32:42;;;;;;;14.10;10.07;;;12.00;99.90;;;;;;5008251;28;20052;-80
2022/10/30 07:35:09;;;;;;;16.58;11.00;;;12.00;99.90;;;;;;5025959;28;20392;-80
2022/10/30 07:37:34;;;;;;;15.52;11.43;;;12.10;99.90;;;;;;5026318;28;20041;-81
2022/10/30 07:40:00;;;;;;;18.23;11.57;;;12.10;99.90;;;;;;5024642;28;20057;-78
2022/10/30 07:42:25;;;;;;;18.83;11.77;;;12.10;99.90;;;;;;5026161;28;20041;-78
2022/10/30 07:44:51;;;;;;;17.70;12.50;;;12.10;99.90;;;;;;5025812;28;20046;-81
2022/10/30 07:47:16;;;;;;;17.42;11.77;;;12.10;99.90;;;;;;5026188;28;20037;-82
2022/10/30 07:49:42;;;;;;;18.52;12.98;;;12.20;99.90;;;;;;5008533;28;20060;-81
2022/10/30 07:52:07;;;;;;;22.05;13.73;;;12.20;99.90;;;;;;5023979;28;20038;-81
2022/10/30 07:54:33;;;;;;;19.48;12.98;;;12.20;99.90;;;;;;5002041;28;20131;-77
2022/10/30 07:56:59;;;;;;;18.02;13.73;;;12.20;99.90;;;;;;5007159;28;20511;-80
2022/10/30 07:59:24;;;;;;;18.55;12.98;;;12.30;99.90;;;;;;5022429;28;20080;-81
2022/10/30 08:01:50;;;;;;;14.88;11.90;;;12.30;99.90;;;;;;5023781;28;20041;-83
2022/10/30 08:04:16;;;;;;;22.77;14.93;;;12.30;99.90;;;;;;4988645;28;20052;-79
2022/10/30 08:06:42;;;;;;;21.90;12.57;;;12.40;99.90;;;;;;4976148;28;20136;-84
2022/10/30 08:09:08;;;;;;;20.55;12.90;;;12.40;99.90;;;;;;5019896;28;20073;-82
2022/10/30 08:11:34;;;;;;;22.42;13.60;;;12.40;99.90;;;;;;4999076;28;20068;-81
2022/10/30 08:14:00;;;;;;;22.40;13.98;;;12.40;99.90;;;;;;5001682;28;20519;-82
2022/10/30 08:16:26;;;;;;;22.25;15.57;;;12.50;99.90;;;;;;4987586;28;20046;-81
2022/10/30 08:18:52;;;;;;;23.95;15.65;;;12.50;99.90;;;;;;5012928;28;20046;-81
2022/10/30 08:21:17;;;;;;;20.40;14.93;;;12.50;99.90;;;;;;5005608;28;20530;-79
2022/10/30 08:23:43;;;;;;;21.15;15.00;;;12.60;99.90;;;;;;5003649;28;20040;-83
2022/10/30 08:26:08;;;;;;;25.50;16.95;;;12.60;99.90;;;;;;4970916;28;20037;-82
2022/10/30 08:28:34;;;;;;;31.95;15.90;;;12.70;99.90;;;;;;5006081;28;20080;-82
2022/10/30 08:31:01;;;;;;;32.83;15.43;;;12.70;99.90;;;;;;5004992;28;20041;-79
2022/10/30 08:33:27;;;;;;;23.25;16.17;;;12.80;99.90;;;;;;5006215;28;20046;-83
2022/10/30 08:35:55;;;;;;;24.40;16.80;;;12.80;99.90;;;;;;5019397;28;20060;-81
2022/10/30 08:38:21;;;;;;;24.38;15.38;;;12.80;99.90;;;;;;5003885;28;20447;-81
2022/10/30 08:40:47;;;;;;;23.70;17.60;;;12.90;99.90;;;;;;5007240;28;20037;-82
2022/10/30 08:43:13;;;;;;;29.83;17.67;;;13.00;99.90;;;;;;5004021;28;20041;-82
2022/10/30 08:45:39;;;;;;;28.60;17.77;;;13.00;99.90;;;;;;4997749;28;20129;-81
2022/10/30 08:48:05;;;;;;;25.63;17.20;;;13.10;99.90;;;;;;5005143;28;20044;-83
2022/10/30 08:50:32;;;;;;;27.38;18.75;;;13.10;99.90;;;;;;4987345;28;20049;-83
2022/10/30 08:53:03;;;;;;;26.20;18.73;;;13.10;99.90;;;;;;4986555;28;20076;-80
2022/10/30 08:55:31;;;;;;;25.60;18.02;;;13.20;99.90;;;;;;4986503;28;20042;-81
2022/10/30 08:57:57;;;;;;;34.03;18.48;;;13.20;99.90;;;;;;4999640;28;20049;-79
2022/10/30 09:00:22;;;;;;;30.90;19.45;;;13.30;99.90;;;;;;4973556;28;20053;-82
2022/10/30 09:02:48;;;;;;;45.53;20.40;;;13.30;99.90;;;;;;5012954;28;20714;-82
2022/10/30 09:05:14;;;;;;;36.05;18.50;;;13.40;99.90;;;;;;4986877;28;20095;-78
2022/10/30 09:07:39;;;;;;;28.23;18.77;;;13.40;99.90;;;;;;4987215;28;20119;-81
2022/10/30 09:10:05;;;;;;;24.17;17.52;;;13.50;99.90;;;;;;5022302;28;20045;-82
2022/10/30 09:12:31;;;;;;;32.17;18.38;;;13.50;99.90;;;;;;4985534;28;20034;-79
2022/10/30 09:14:56;;;;;;;24.02;17.48;;;13.50;99.90;;;;;;5024972;28;20052;-82
2022/10/30 09:17:22;;;;;;;28.63;18.70;;;13.60;99.90;;;;;;4995206;28;20064;-83
2022/10/30 09:19:48;;;;;;;35.95;18.85;;;13.60;99.90;;;;;;4988242;28;20049;-78
2022/10/30 09:22:13;;;;;;;30.98;18.55;;;13.60;99.90;;;;;;4987362;28;20046;-82
2022/10/30 09:24:39;;;;;;;33.28;19.10;;;13.60;99.90;;;;;;4986542;28;20066;-82
2022/10/30 09:27:05;;;;;;;25.45;18.17;;;13.70;99.90;;;;;;5003969;28;20037;-78
2022/10/30 09:29:31;;;;;;;28.45;18.85;;;13.70;99.90;;;;;;4986714;28;20404;-83
2022/10/30 09:31:57;;;;;;;25.83;18.48;;;13.80;99.90;;;;;;4996197;28;20043;-82
2022/10/30 09:34:23;;;;;;;26.95;17.33;;;13.80;99.90;;;;;;4977088;28;20129;-81
2022/10/30 09:36:49;;;;;;;29.33;20.27;;;13.80;99.90;;;;;;4972126;28;20126;-81
2022/10/30 09:39:15;;;;;;;28.50;19.48;;;13.90;99.90;;;;;;4980191;28;20452;-79
2022/10/30 09:42:14;;;;;;;29.88;19.52;;;13.90;99.90;;;;;;4990580;28;20035;-81
2022/10/30 09:44:52;;;;;;;34.97;19.40;;;13.90;99.90;;;;;;4990245;28;20045;-86
2022/10/30 09:47:26;;;;;;;29.13;17.58;;;14.00;99.90;;;;;;4952254;28;20189;-80
2022/10/30 09:49:58;;;;;;;36.53;20.40;;;14.00;99.90;;;;;;4964597;28;20069;-78
2022/10/30 09:52:30;;;;;;;30.67;17.52;;;14.00;99.90;;;;;;4992811;28;20042;-81
2022/10/30 09:55:19;;;;;;;33.30;18.38;;;14.10;99.90;;;;;;4977076;28;20278;-80
2022/10/30 09:58:13;;;;;;;30.10;18.10;;;14.20;99.90;;;;;;4969654;28;20505;-79
2022/10/30 10:00:52;;;;;;;26.45;17.80;;;14.20;99.90;;;;;;4993551;28;20455;-80
2022/10/30 10:03:59;;;;;;;28.48;17.80;;;14.30;99.90;;;;;;4989093;28;20726;-80
2022/10/30 10:06:25;;;;;;;29.55;18.38;;;14.30;99.90;;;;;;5007460;28;20467;-80
2022/10/30 10:09:04;;;;;;;30.08;17.50;;;14.40;99.90;;;;;;4995229;28;20132;-78
2022/10/30 10:11:38;;;;;;;31.20;17.92;;;14.40;99.90;;;;;;4996623;28;20053;-81
2022/10/30 10:14:19;;;;;;;30.92;16.77;;;14.50;99.90;;;;;;5007244;28;20176;-81
2022/10/30 10:16:50;;;;;;;29.00;17.35;;;14.50;99.90;;;;;;5007828;28;20054;-81
2022/10/30 10:19:19;;;;;;;27.80;18.05;;;14.50;99.90;;;;;;5007653;28;20041;-81
2022/10/30 10:21:53;;;;;;;37.78;18.27;;;14.60;99.90;;;;;;5007363;28;20057;-81
2022/10/30 10:24:35;;;;;;;25.67;15.68;;;14.60;99.90;;;;;;4972535;28;20551;-80
2022/10/30 10:27:39;;;;;;;28.08;17.73;;;14.70;99.90;;;;;;5004291;28;20049;-81
2022/10/30 10:30:15;;;;;;;27.73;16.27;;;14.70;99.90;;;;;;5002511;28;20105;-81
2022/10/30 10:32:56;;;;;;;30.20;17.98;;;14.80;99.90;;;;;;5005804;28;20065;-82
2022/10/30 10:35:49;;;;;;;24.02;15.35;;;14.80;99.90;;;;;;4954091;28;20448;-81
2022/10/30 10:38:52;;;;;;;25.95;17.02;;;14.80;99.90;;;;;;5012113;28;20127;-80
2022/10/30 10:41:59;;;;;;;24.15;15.63;;;14.90;99.90;;;;;;4982094;28;20065;-82
2022/10/30 10:44:39;;;;;;;26.83;15.43;;;15.00;99.90;;;;;;4985433;28;20385;-84
2022/10/30 10:47:23;;;;;;;25.38;16.15;;;15.00;99.90;;;;;;5003861;28;20049;-83
2022/10/30 10:50:14;;;;;;;29.38;16.00;;;15.10;99.90;;;;;;4972884;28;20045;-81
2022/10/30 10:52:57;;;;;;;23.25;15.25;;;15.10;99.90;;;;;;4992897;28;20049;-82
2022/10/30 10:55:31;;;;;;;21.52;13.20;;;15.10;99.90;;;;;;4971172;28;20046;-78
2022/10/30 10:58:05;;;;;;;25.75;15.38;;;15.20;99.90;;;;;;4996893;28;20049;-78
2022/10/30 11:00:30;;;;;;;24.40;14.93;;;15.20;99.90;;;;;;5013037;28;20057;-77
2022/10/30 11:03:02;;;;;;;35.47;18.45;;;15.30;99.90;;;;;;5022500;28;20045;-77
2022/10/30 11:05:54;;;;;;;34.03;14.80;;;15.30;99.90;;;;;;5026427;28;20049;-79
2022/10/30 11:08:28;;;;;;;24.60;13.88;;;15.40;99.90;;;;;;4998631;28;20062;-78
2022/10/30 11:10:59;;;;;;;23.00;13.73;;;15.30;99.90;;;;;;4972658;28;20113;-79
2022/10/30 11:13:35;;;;;;;29.08;13.15;;;15.40;99.90;;;;;;4988189;28;20121;-79
2022/10/30 11:16:24;;;;;;;26.10;14.45;;;15.40;99.90;;;;;;4999235;28;20048;-79
2022/10/30 11:19:02;;;;;;;19.60;13.18;;;15.50;99.90;;;;;;5006466;28;20053;-79
2022/10/30 11:21:33;;;;;;;22.00;11.75;;;15.50;99.90;;;;;;4973779;28;20034;-79
2022/10/30 11:23:59;;;;;;;20.20;12.60;;;15.50;99.90;;;;;;4997085;28;20044;-80
2022/10/30 11:26:28;;;;;;;18.67;10.63;;;15.60;99.90;;;;;;5012315;28;20045;-82
2022/10/30 11:28:58;;;;;;;31.42;14.63;;;15.60;99.90;;;;;;5003340;28;20042;-81
2022/10/30 11:31:42;;;;;;;29.30;14.20;;;15.70;99.90;;;;;;4970612;28;20042;-83
2022/10/30 11:34:17;;;;;;;19.55;12.70;;;15.70;99.90;;;;;;4972713;28;20079;-86
2022/10/30 11:36:47;;;;;;;22.42;13.50;;;15.70;99.90;;;;;;5027641;28;20582;-83
2022/10/30 11:39:18;;;;;;;18.35;10.82;;;15.80;99.90;;;;;;5026225;28;20044;-83
2022/10/30 11:41:54;;;;;;;15.63;10.13;;;15.80;99.90;;;;;;5027257;28;20051;-87
2022/10/30 11:44:21;;;;;;;24.30;11.00;;;15.80;99.90;;;;;;5019396;28;20042;-81
2022/10/30 11:46:47;;;;;;;23.52;12.25;;;15.90;99.90;;;;;;5007857;28;20124;-84
2022/10/30 11:49:36;;;;;;;22.98;11.68;;;15.90;99.90;;;;;;5006728;28;20056;-86
2022/10/30 11:52:02;;;;;;;17.15;9.90;;;15.90;99.90;;;;;;5006354;28;20057;-79
2022/10/30 11:54:28;;;;;;;18.08;10.25;;;15.90;99.90;;;;;;5006596;28;20125;-86
2022/10/30 11:56:57;;;;;;;18.02;8.88;;;16.00;99.90;;;;;;4974114;28;20153;-83
2022/10/30 11:59:23;;;;;;;13.63;9.38;;;16.00;99.90;;;;;;5008353;28;20045;-82
2022/10/30 12:02:18;;;;;;;20.08;9.70;;;16.00;99.90;;;;;;5005694;28;20489;-80
2022/10/30 12:04:43;;;;;;;13.30;8.80;;;16.00;99.90;;;;;;5026746;28;20041;-83
2022/10/30 12:07:31;;;;;;;20.30;9.38;;;16.00;99.90;;;;;;5002703;28;20797;-80
2022/10/30 12:09:58;;;;;;;13.77;9.30;;;16.10;99.90;;;;;;4989206;28;20081;-81
2022/10/30 12:12:31;;;;;;;16.70;8.20;;;16.10;99.90;;;;;;5007106;28;20510;-80
2022/10/30 12:15:09;;;;;;;14.45;7.35;;;16.10;99.90;;;;;;5006857;28;20042;-84
2022/10/30 12:17:37;;;;;;;13.32;7.50;;;16.10;99.90;;;;;;5007918;28;20088;-81
2022/10/30 12:20:04;;;;;;;13.93;6.40;;;16.20;99.90;;;;;;5013476;28;20069;-86
2022/10/30 12:22:32;;;;;;;18.92;6.50;;;16.20;99.90;;;;;;5006204;28;20124;-80
2022/10/30 12:25:30;;;;;;;10.02;5.22;;;16.20;99.90;;;;;;5004916;28;20112;-80
2022/10/30 12:28:18;;;;;;;9.50;5.35;;;16.20;99.90;;;;;;5010413;28;20099;-84
2022/10/30 12:31:02;;;;;;;8.57;5.95;;;16.20;99.90;;;;;;5009748;28;20488;-85
2022/10/30 12:33:43;;;;;;;8.55;6.63;;;16.20;99.90;;;;;;5004525;28;20045;-82
2022/10/30 12:36:39;;;;;;;22.98;7.03;;;16.20;99.90;;;;;;4999201;28;20797;-80
2022/10/30 12:39:30;;;;;;;11.40;6.30;;;16.30;99.90;;;;;;4973046;28;20117;-83
2022/10/30 12:42:10;;;;;;;8.02;7.05;;;16.20;99.90;;;;;;4986833;28;20089;-82
2022/10/30 12:44:41;;;;;;;14.02;7.65;;;16.20;99.90;;;;;;4980447;28;20045;-82